createdAt,value
2019-02-16T00:00:48.943Z,30.40
2019-02-16T00:03:17.423Z,29.70
2019-02-16T00:05:45.763Z,27.53
2019-02-16T00:08:13.976Z,28.03
2019-02-16T00:10:42.453Z,27.03
2019-02-16T00:13:10.937Z,28.00
2019-02-16T00:15:39.210Z,26.83
2019-02-16T00:18:08.918Z,27.17
2019-02-16T00:20:36.990Z,26.27
2019-02-16T00:23:05.321Z,24.87
2019-02-16T00:25:33.543Z,26.23
2019-02-16T00:28:01.817Z,25.37
2019-02-16T00:30:30.093Z,25.70
2019-02-16T00:32:58.370Z,25.70
2019-02-16T00:35:26.649Z,25.90
2019-02-16T00:37:54.715Z,27.27
2019-02-16T00:40:23.195Z,25.10
2019-02-16T00:42:51.676Z,27.03
2019-02-16T00:45:20.157Z,27.23
2019-02-16T00:47:51.917Z,24.83
2019-02-16T00:50:20.189Z,25.60
2019-02-16T00:52:49.695Z,25.93
2019-02-16T00:55:18.175Z,27.33
2019-02-16T00:57:46.656Z,26.07
2019-02-16T01:00:14.733Z,24.93
2019-02-16T01:02:42.799Z,23.83
2019-02-16T01:05:17.220Z,24.83
2019-02-16T01:08:05.614Z,24.47
2019-02-16T01:10:34.044Z,24.40
2019-02-16T01:13:02.524Z,23.70
2019-02-16T01:15:31.005Z,24.00
2019-02-16T01:17:59.486Z,24.93
2019-02-16T01:20:27.969Z,25.63
2019-02-16T01:22:56.245Z,24.70
2019-02-16T01:25:24.516Z,25.80
2019-02-16T01:27:54.021Z,25.20
2019-02-16T01:30:23.526Z,22.50
2019-02-16T01:32:51.597Z,24.23
2019-02-16T01:35:19.874Z,23.23
2019-02-16T01:37:48.149Z,23.13
2019-02-16T01:40:16.424Z,22.50
2019-02-16T01:42:44.546Z,23.67
2019-02-16T01:45:13.185Z,23.70
2019-02-16T01:47:40.841Z,25.70
2019-02-16T01:50:09.325Z,24.37
2019-02-16T01:52:37.805Z,25.33
2019-02-16T01:55:08.694Z,25.83
2019-02-16T01:57:36.196Z,25.27
2019-02-16T02:00:06.552Z,25.03
2019-02-16T02:02:34.182Z,24.90
2019-02-16T02:05:02.051Z,23.93
2019-02-16T02:07:31.143Z,24.40
2019-02-16T02:09:59.627Z,24.87
2019-02-16T02:12:29.336Z,25.43
2019-02-16T02:14:58.840Z,24.33
2019-02-16T02:17:27.265Z,25.70
2019-02-16T02:19:54.980Z,24.90
2019-02-16T02:22:23.256Z,25.20
2019-02-16T02:24:51.735Z,25.63
2019-02-16T02:27:21.240Z,25.20
2019-02-16T02:29:49.724Z,24.43
2019-02-16T02:32:17.791Z,25.03
2019-02-16T02:34:45.862Z,24.30
2019-02-16T02:37:14.138Z,24.93
2019-02-16T02:39:42.213Z,26.50
2019-02-16T02:42:10.490Z,26.37
2019-02-16T02:44:38.390Z,25.60
2019-02-16T02:47:06.470Z,28.77
2019-02-16T02:49:34.697Z,29.00
2019-02-16T02:52:02.977Z,27.10
2019-02-16T02:54:31.254Z,25.27
2019-02-16T02:57:00.758Z,27.03
2019-02-16T02:59:29.028Z,25.13
2019-02-16T03:01:57.304Z,26.03
2019-02-16T03:04:25.607Z,25.27
2019-02-16T03:06:55.098Z,25.17
2019-02-16T03:09:23.155Z,26.30
2019-02-16T03:11:51.430Z,26.17
2019-02-16T03:14:19.706Z,26.63
2019-02-16T03:16:47.984Z,26.60
2019-02-16T03:19:16.261Z,25.60
2019-02-16T03:21:44.174Z,25.50
2019-02-16T03:24:13.628Z,25.70
2019-02-16T03:26:45.591Z,26.60
2019-02-16T03:29:25.950Z,26.43
2019-02-16T03:32:16.366Z,27.67
2019-02-16T03:34:50.971Z,27.03
2019-02-16T03:37:31.618Z,26.73
2019-02-16T03:39:59.195Z,29.13
2019-02-16T03:42:28.706Z,27.10
2019-02-16T03:44:57.180Z,27.97
2019-02-16T03:47:25.250Z,28.33
2019-02-16T03:49:53.524Z,27.97
2019-02-16T03:52:23.031Z,28.87
2019-02-16T03:54:51.305Z,28.87
2019-02-16T03:57:19.584Z,28.47
2019-02-16T03:59:47.856Z,31.57
2019-02-16T04:02:16.132Z,28.33
2019-02-16T04:04:44.412Z,28.57
2019-02-16T04:07:12.685Z,30.17
2019-02-16T04:09:40.960Z,27.90
2019-02-16T04:12:08.825Z,30.40
2019-02-16T04:14:37.305Z,29.93
2019-02-16T04:17:05.786Z,32.33
2019-02-16T04:19:33.859Z,31.77
2019-02-16T04:22:03.366Z,33.27
2019-02-16T04:24:31.639Z,35.40
2019-02-16T04:26:59.708Z,34.97
2019-02-16T04:29:28.194Z,39.70
2019-02-16T04:31:57.694Z,37.97
2019-02-16T04:34:26.174Z,35.00
2019-02-16T04:37:07.699Z,30.60
2019-02-16T04:39:35.218Z,29.83
2019-02-16T04:42:03.494Z,26.80
2019-02-16T04:44:31.976Z,26.83
2019-02-16T04:47:19.887Z,25.60
2019-02-16T04:50:01.811Z,27.67
2019-02-16T04:52:34.727Z,28.03
2019-02-16T04:54:59.279Z,30.00
2019-02-16T04:57:28.988Z,29.10
2019-02-16T04:59:58.492Z,33.07
2019-02-16T05:02:39.748Z,31.93
2019-02-16T05:05:07.331Z,32.53
2019-02-16T05:07:35.813Z,33.97
2019-02-16T05:10:05.726Z,33.93
2019-02-16T05:12:35.230Z,33.43
2019-02-16T05:15:16.515Z,33.50
2019-02-16T05:17:44.274Z,31.20
2019-02-16T05:20:12.773Z,30.90
2019-02-16T05:22:44.581Z,30.83
2019-02-16T05:25:10.128Z,32.00
2019-02-16T05:27:51.101Z,30.83
2019-02-16T05:30:18.763Z,28.90
2019-02-16T05:32:47.242Z,29.57
2019-02-16T05:35:15.722Z,27.30
2019-02-16T05:37:48.535Z,27.67
2019-02-16T05:40:16.984Z,27.60
2019-02-16T05:42:45.259Z,26.63
2019-02-16T05:45:13.538Z,26.00
2019-02-16T05:47:41.811Z,25.97
2019-02-16T05:50:10.087Z,25.23
2019-02-16T05:52:37.953Z,27.10
2019-02-16T05:55:06.638Z,28.77
2019-02-16T05:57:34.300Z,28.10
2019-02-16T06:00:06.013Z,25.97
2019-02-16T06:02:33.717Z,24.13
2019-02-16T06:05:02.200Z,24.83
2019-02-16T06:07:30.272Z,25.73
2019-02-16T06:09:58.136Z,30.80
2019-02-16T06:12:26.616Z,30.57
2019-02-16T06:15:04.107Z,26.53
2019-02-16T06:17:31.769Z,25.43
2019-02-16T06:20:00.352Z,25.83
2019-02-16T06:22:28.525Z,26.73
2019-02-16T06:24:57.006Z,27.33
2019-02-16T06:27:25.489Z,27.17
2019-02-16T06:29:53.384Z,27.20
2019-02-16T06:32:21.411Z,28.30
2019-02-16T06:34:51.353Z,26.60
2019-02-16T06:40:11.647Z,27.43
2019-02-16T06:42:39.921Z,25.60
2019-02-16T06:45:08.197Z,24.90
2019-02-16T06:47:36.267Z,25.97
2019-02-16T06:50:05.158Z,26.30
2019-02-16T06:52:33.640Z,29.43
2019-02-16T06:55:02.123Z,27.27
2019-02-16T06:57:31.213Z,25.23
2019-02-16T06:59:59.284Z,26.33
2019-02-16T07:02:28.994Z,28.53
2019-02-16T07:04:56.862Z,25.90
2019-02-16T07:07:44.726Z,24.90
2019-02-16T07:10:12.867Z,26.13
2019-02-16T07:12:41.401Z,24.27
2019-02-16T07:15:09.009Z,25.57
2019-02-16T07:17:48.139Z,25.40
2019-02-16T07:20:18.467Z,25.37
2019-02-16T07:22:46.742Z,24.10
2019-02-16T07:25:14.709Z,23.20
2019-02-16T07:27:43.086Z,23.70
2019-02-16T07:30:11.569Z,27.20
2019-02-16T07:32:40.052Z,23.53
2019-02-16T07:35:08.530Z,23.83
2019-02-16T07:37:36.399Z,23.83
2019-02-16T07:40:06.256Z,24.50
2019-02-16T07:42:57.316Z,25.80
2019-02-16T07:45:34.807Z,25.43
2019-02-16T07:48:10.456Z,24.23
2019-02-16T07:50:46.718Z,25.70
2019-02-16T07:53:16.428Z,25.23
2019-02-16T07:55:47.165Z,26.17
2019-02-16T07:58:17.280Z,24.97
2019-02-16T08:00:46.989Z,25.47
2019-02-16T08:03:17.283Z,25.53
2019-02-16T08:05:49.275Z,26.37
2019-02-16T08:08:20.828Z,22.33
2019-02-16T08:10:50.947Z,24.50
2019-02-16T08:13:39.292Z,23.93
2019-02-16T08:16:25.798Z,23.63
2019-02-16T08:19:11.777Z,22.30
2019-02-16T08:22:00.647Z,24.63
2019-02-16T08:24:36.500Z,24.10
2019-02-16T08:27:06.445Z,23.43
2019-02-16T08:29:52.712Z,24.70
2019-02-16T08:32:32.256Z,25.13
2019-02-16T08:35:21.211Z,25.47
2019-02-16T08:37:51.136Z,23.27
2019-02-16T08:40:21.862Z,24.20
2019-02-16T08:42:55.049Z,22.77
2019-02-16T08:45:41.969Z,22.10
2019-02-16T08:48:12.401Z,23.27
2019-02-16T08:50:52.031Z,23.07
2019-02-16T08:53:29.113Z,23.73
2019-02-16T08:55:59.641Z,22.30
2019-02-16T08:58:29.351Z,22.73
2019-02-16T09:01:10.703Z,24.73
2019-02-16T09:03:43.310Z,24.10
2019-02-16T09:06:31.248Z,22.20
2019-02-16T09:09:01.379Z,22.90
2019-02-16T09:11:47.664Z,23.93
2019-02-16T09:14:27.002Z,22.93
2019-02-16T09:17:13.305Z,24.13
2019-02-16T09:19:43.007Z,24.03
2019-02-16T09:22:13.658Z,25.87
2019-02-16T09:24:46.726Z,23.93
2019-02-16T09:27:32.411Z,24.33
2019-02-16T09:30:05.197Z,22.97
2019-02-16T09:32:35.260Z,22.93
2019-02-16T09:35:10.142Z,23.83
2019-02-16T09:37:43.946Z,24.00
2019-02-16T09:40:18.776Z,24.93
2019-02-16T09:42:49.097Z,27.87
2019-02-16T09:45:36.215Z,27.07
2019-02-16T09:48:21.079Z,26.57
2019-02-16T09:50:56.932Z,25.27
2019-02-16T09:53:39.135Z,24.37
2019-02-16T09:56:18.265Z,24.27
2019-02-16T09:58:48.592Z,22.73
2019-02-16T10:01:24.444Z,23.67
2019-02-16T10:03:57.225Z,23.10
2019-02-16T10:06:45.776Z,24.47
2019-02-16T10:09:16.098Z,25.90
2019-02-16T10:11:46.832Z,23.57
2019-02-16T10:14:22.480Z,23.12
2019-02-16T10:16:58.338Z,22.70
2019-02-16T10:19:31.114Z,22.95
2019-02-16T10:22:18.231Z,24.00
2019-02-16T10:24:51.013Z,24.60
2019-02-16T10:27:36.697Z,23.07
2019-02-16T10:30:26.887Z,23.70
2019-02-16T10:33:08.316Z,23.07
2019-02-16T10:35:43.713Z,22.65
2019-02-16T10:38:16.910Z,27.03
2019-02-16T10:40:55.829Z,27.97
2019-02-16T10:43:30.249Z,25.97
2019-02-16T10:46:12.246Z,25.60
2019-02-16T10:48:54.244Z,25.17
2019-02-16T10:51:33.579Z,24.95
2019-02-16T10:54:26.979Z,22.52
2019-02-16T10:56:55.526Z,22.77
2019-02-16T10:59:24.932Z,23.15
2019-02-16T11:01:55.354Z,21.68
2019-02-16T11:04:38.194Z,23.92
2019-02-16T11:09:55.406Z,21.25
2019-02-16T11:12:25.526Z,22.50
2019-02-16T11:14:55.850Z,22.00
2019-02-16T11:17:34.980Z,23.67
2019-02-16T11:20:13.496Z,22.25
2019-02-16T11:23:01.228Z,22.22
2019-02-16T11:25:43.841Z,23.12
2019-02-16T11:28:14.035Z,21.85
2019-02-16T11:30:47.101Z,22.00
2019-02-16T11:33:19.318Z,22.85
2019-02-16T11:35:57.223Z,20.72
2019-02-16T11:38:45.360Z,21.12
2019-02-16T11:41:18.991Z,22.02
2019-02-16T11:44:02.800Z,20.85
2019-02-16T11:46:33.123Z,21.00
2019-02-16T11:49:14.711Z,21.65
2019-02-16T11:51:54.323Z,20.05
2019-02-16T11:54:30.109Z,19.48
2019-02-16T11:57:05.960Z,19.55
2019-02-16T11:59:38.945Z,18.65
2019-02-16T12:02:11.072Z,19.57
2019-02-16T12:04:41.028Z,22.35
2019-02-16T12:07:27.938Z,23.87
2019-02-16T12:10:01.335Z,21.20
2019-02-16T12:12:36.778Z,24.70
2019-02-16T12:15:08.126Z,22.48
2019-02-16T12:17:41.316Z,18.87
2019-02-16T12:20:20.038Z,18.98
2019-02-16T12:23:02.239Z,20.88
2019-02-16T12:25:38.298Z,19.45
2019-02-16T12:28:17.224Z,20.62
2019-02-16T12:30:53.281Z,21.40
2019-02-16T12:33:26.470Z,18.82
2019-02-16T12:36:07.444Z,18.92
2019-02-16T12:38:52.321Z,17.90
2019-02-16T12:41:38.813Z,24.43
2019-02-16T12:44:27.978Z,19.70
2019-02-16T12:47:00.566Z,18.23
2019-02-16T12:49:35.794Z,19.10
2019-02-16T12:52:22.501Z,19.90
2019-02-16T12:55:04.294Z,20.85
2019-02-16T12:57:39.948Z,22.80
2019-02-16T13:00:18.874Z,21.70
2019-02-16T13:02:57.590Z,23.20
2019-02-16T13:05:27.503Z,22.02
2019-02-16T13:07:57.432Z,22.62
2019-02-16T13:10:32.419Z,20.00
2019-02-16T13:13:01.480Z,21.35
2019-02-16T13:15:36.416Z,21.20
2019-02-16T13:18:05.472Z,21.75
2019-02-16T13:20:36.392Z,22.65
2019-02-16T13:23:05.461Z,22.87
2019-02-16T13:25:34.583Z,22.10
2019-02-16T13:28:19.940Z,21.33
2019-02-16T13:30:49.065Z,21.73
2019-02-16T13:33:30.107Z,21.45
2019-02-16T13:36:02.152Z,23.00
2019-02-16T13:38:48.052Z,24.90
2019-02-16T13:41:17.205Z,22.77
2019-02-16T13:43:46.349Z,22.52
2019-02-16T13:46:24.523Z,23.30
2019-02-16T13:48:56.382Z,20.62
2019-02-16T13:51:28.009Z,21.87
2019-02-16T13:53:56.989Z,21.97
2019-02-16T13:56:26.004Z,23.55
2019-02-16T13:59:01.043Z,22.87
2019-02-16T14:01:30.004Z,22.75
2019-02-16T14:04:02.564Z,22.02
2019-02-16T14:06:31.614Z,21.05
2019-02-16T14:09:00.689Z,22.67
2019-02-16T14:11:38.532Z,24.70
2019-02-16T14:14:10.282Z,23.52
2019-02-16T14:16:54.316Z,23.02
2019-02-16T14:19:21.460Z,23.38
2019-02-16T14:21:48.708Z,22.42
2019-02-16T14:24:17.814Z,22.17
2019-02-16T14:26:44.963Z,23.85
2019-02-16T14:29:12.206Z,23.62
2019-02-16T14:31:39.394Z,25.65
2019-02-16T14:34:06.694Z,25.02
2019-02-16T14:36:33.950Z,22.82
2019-02-16T14:39:05.968Z,23.77
2019-02-16T14:41:33.209Z,23.40
2019-02-16T14:44:00.593Z,22.25
2019-02-16T14:46:28.200Z,24.12
2019-02-16T14:48:55.457Z,23.47
2019-02-16T14:51:22.888Z,24.82
2019-02-16T14:53:50.299Z,25.82
2019-02-16T14:56:17.649Z,23.87
2019-02-16T14:58:45.455Z,25.37
2019-02-16T15:01:13.583Z,24.23
2019-02-16T15:03:40.808Z,25.48
2019-02-16T15:06:08.001Z,26.55
2019-02-16T15:08:35.379Z,25.85
2019-02-16T15:11:03.056Z,27.23
2019-02-16T15:13:31.344Z,27.27
2019-02-16T15:15:58.689Z,27.17
2019-02-16T15:18:26.129Z,26.27
2019-02-16T15:20:54.313Z,28.50
2019-02-16T15:23:21.572Z,27.27
2019-02-16T15:25:48.795Z,28.60
2019-02-16T15:28:16.132Z,26.50
2019-02-16T15:30:43.464Z,28.20
2019-02-16T15:33:10.781Z,28.90
2019-02-16T15:35:38.073Z,30.77
2019-02-16T15:38:05.379Z,30.37
2019-02-16T15:40:32.578Z,31.30
2019-02-16T15:42:59.747Z,30.90
2019-02-16T15:45:26.965Z,32.60
2019-02-16T15:47:54.264Z,31.90
2019-02-16T15:50:21.517Z,30.97
2019-02-16T15:52:48.694Z,32.10
2019-02-16T15:55:15.999Z,30.43
2019-02-16T15:57:43.343Z,28.60
2019-02-16T16:00:16.111Z,32.13
2019-02-16T16:02:43.386Z,31.10
2019-02-16T16:05:10.552Z,31.93
2019-02-16T16:07:38.673Z,31.80
2019-02-16T16:10:11.074Z,34.97
2019-02-16T16:12:41.250Z,37.43
2019-02-16T16:15:19.175Z,36.87
2019-02-16T16:17:57.052Z,38.73
2019-02-16T16:20:26.547Z,41.67
2019-02-16T16:22:58.808Z,39.27
2019-02-16T16:25:33.543Z,36.27
2019-02-16T16:28:15.781Z,44.73
2019-02-16T16:30:44.783Z,42.17
2019-02-16T16:33:19.997Z,40.93
2019-02-16T16:35:55.181Z,39.87
2019-02-16T16:38:30.041Z,43.47
2019-02-16T16:41:01.897Z,44.57
2019-02-16T16:43:31.432Z,50.93
2019-02-16T16:46:16.985Z,54.67
2019-02-16T16:49:00.978Z,61.97
2019-02-16T16:51:30.113Z,59.03
2019-02-16T16:54:05.404Z,61.80
2019-02-16T16:56:34.764Z,54.80
2019-02-16T16:59:13.201Z,50.83
2019-02-16T17:01:51.193Z,50.83
2019-02-16T17:04:23.558Z,51.37
2019-02-16T17:07:10.272Z,49.97
2019-02-16T17:09:40.383Z,51.90
2019-02-16T17:12:22.184Z,58.23
2019-02-16T17:15:00.004Z,58.97
2019-02-16T17:17:31.843Z,54.57
2019-02-16T17:20:00.936Z,48.97
2019-02-16T17:22:44.689Z,51.70
2019-02-16T17:25:19.593Z,57.83
2019-02-16T17:27:51.532Z,63.13
2019-02-16T17:30:29.471Z,61.40
2019-02-16T17:33:15.179Z,57.60
2019-02-16T17:35:47.167Z,54.90
2019-02-16T17:38:21.883Z,50.60
2019-02-16T17:41:06.122Z,54.83
2019-02-16T17:43:37.979Z,49.60
2019-02-16T17:46:23.781Z,49.67
2019-02-16T17:49:10.848Z,47.23
2019-02-16T17:51:46.108Z,45.50
2019-02-16T17:54:18.019Z,43.97
2019-02-16T17:56:47.156Z,45.57
2019-02-16T17:59:22.145Z,50.10
2019-02-16T18:02:07.405Z,50.23
2019-02-16T18:04:48.428Z,52.10
2019-02-16T18:07:26.569Z,49.40
2019-02-16T18:09:55.734Z,53.30
2019-02-16T18:12:41.262Z,52.83
2019-02-16T18:15:16.351Z,56.13
2019-02-16T18:17:45.591Z,57.27
2019-02-16T18:20:14.763Z,59.23
2019-02-16T18:22:46.988Z,60.63
2019-02-16T18:25:16.214Z,52.33
2019-02-16T18:28:01.980Z,47.07
2019-02-16T18:30:44.455Z,41.50
2019-02-16T18:33:30.494Z,35.40
2019-02-16T18:36:08.969Z,37.27
2019-02-16T18:38:38.028Z,32.63
2019-02-16T18:41:13.071Z,31.23
2019-02-16T18:43:59.884Z,29.47
2019-02-16T18:46:38.083Z,28.17
2019-02-16T18:49:22.308Z,29.33
2019-02-16T18:51:57.181Z,29.07
2019-02-16T18:54:29.045Z,27.80
2019-02-16T18:57:14.553Z,25.90
2019-02-16T18:59:51.122Z,27.23
2019-02-16T19:02:20.227Z,25.63
2019-02-16T19:04:51.799Z,26.77
2019-02-16T19:07:23.615Z,26.77
2019-02-16T19:10:04.647Z,26.07
2019-02-16T19:12:36.520Z,24.40
2019-02-16T19:15:13.541Z,24.57
2019-02-16T19:17:42.588Z,26.20
2019-02-16T19:20:14.970Z,28.03
2019-02-16T19:22:46.911Z,28.93
2019-02-16T19:25:30.547Z,23.97
2019-02-16T19:28:02.345Z,24.60
2019-02-16T19:30:37.189Z,21.93
2019-02-16T19:33:08.875Z,22.33
2019-02-16T19:35:46.950Z,21.03
2019-02-16T19:38:32.598Z,20.77
2019-02-16T19:41:13.851Z,22.63
2019-02-16T19:43:46.331Z,24.20
2019-02-16T19:46:18.205Z,18.27
2019-02-16T19:49:05.319Z,18.53
2019-02-16T19:51:46.318Z,19.50
2019-02-16T19:54:32.694Z,18.13
2019-02-16T19:57:04.733Z,18.33
2019-02-16T19:59:36.590Z,17.90
2019-02-16T20:02:08.688Z,15.33
2019-02-16T20:04:40.528Z,15.90
2019-02-16T20:07:26.484Z,15.13
2019-02-16T20:09:55.706Z,15.60
2019-02-16T20:12:30.878Z,14.40
2019-02-16T20:15:02.830Z,13.93
2019-02-16T20:17:34.845Z,14.00
2019-02-16T20:20:07.266Z,12.63
2019-02-16T20:22:41.183Z,12.40
2019-02-16T20:25:12.875Z,12.37
2019-02-16T20:27:42.312Z,11.57
2019-02-16T20:33:10.602Z,13.17
2019-02-16T20:35:49.322Z,12.63
2019-02-16T20:38:21.900Z,10.53
2019-02-16T20:40:57.340Z,10.60
2019-02-16T20:43:30.274Z,12.07
2019-02-16T20:46:17.854Z,12.40
2019-02-16T20:48:54.124Z,12.33
2019-02-16T20:51:24.235Z,11.57
2019-02-16T20:54:12.377Z,12.43
2019-02-16T20:56:45.776Z,11.13
2019-02-16T20:59:32.073Z,11.50
2019-02-16T21:02:19.189Z,10.63
2019-02-16T21:05:05.694Z,11.40
2019-02-16T21:07:36.015Z,10.47
2019-02-16T21:13:15.369Z,9.67
2019-02-16T21:15:51.223Z,10.13
2019-02-16T21:18:39.098Z,10.23
2019-02-16T21:21:11.531Z,10.30
2019-02-16T21:23:41.035Z,11.10
2019-02-16T21:26:11.155Z,10.20
2019-02-16T21:28:50.285Z,9.90
2019-02-16T21:31:20.609Z,9.47
2019-02-16T21:33:56.289Z,9.40
2019-02-16T21:36:30.165Z,9.80
2019-02-16T21:39:12.063Z,11.03
2019-02-16T21:41:59.177Z,10.23
2019-02-16T21:44:29.346Z,10.60
2019-02-16T21:47:02.708Z,9.87
2019-02-16T21:49:32.671Z,10.47
2019-02-16T21:52:05.185Z,10.60
2019-02-16T21:54:35.507Z,9.87
2019-02-16T21:57:14.637Z,10.63
2019-02-16T22:00:00.945Z,10.00
2019-02-16T22:02:36.583Z,10.13
2019-02-16T22:05:23.291Z,10.30
2019-02-16T22:08:07.952Z,11.70
2019-02-16T22:10:44.029Z,12.20
2019-02-16T22:13:12.079Z,11.67
2019-02-16T22:15:40.561Z,11.30
2019-02-16T22:18:08.632Z,11.47
2019-02-16T22:20:37.119Z,10.03
2019-02-16T22:23:05.593Z,10.90
2019-02-16T22:25:34.073Z,10.73
2019-02-16T22:28:05.830Z,11.20
2019-02-16T22:30:34.311Z,11.20
2019-02-16T22:33:04.019Z,10.80
2019-02-16T22:35:32.915Z,12.13
2019-02-16T22:38:03.849Z,11.40
2019-02-16T22:40:33.815Z,11.43
2019-02-16T22:43:02.039Z,14.40
2019-02-16T22:45:30.518Z,13.13
2019-02-16T22:47:58.794Z,13.60
2019-02-16T22:50:27.070Z,11.67
2019-02-16T22:52:55.346Z,13.17
2019-02-16T22:55:26.489Z,12.23
2019-02-16T22:57:55.019Z,13.63
2019-02-16T23:00:27.756Z,14.43
2019-02-16T23:02:56.232Z,13.20
2019-02-16T23:05:23.895Z,13.63
2019-02-16T23:07:52.374Z,13.90
2019-02-16T23:10:20.854Z,13.23
2019-02-16T23:12:49.746Z,13.20
2019-02-16T23:15:18.020Z,13.47
2019-02-16T23:17:46.295Z,13.37
2019-02-16T23:20:14.571Z,13.23
2019-02-16T23:22:43.050Z,12.63
2019-02-16T23:25:11.372Z,13.60
2019-02-16T23:27:39.808Z,13.17
2019-02-16T23:30:09.928Z,14.07
2019-02-16T23:32:37.792Z,13.67
2019-02-16T23:35:07.130Z,12.47
2019-02-16T23:37:34.958Z,11.93
2019-02-16T23:40:03.849Z,12.67
2019-02-16T23:42:34.583Z,13.83
2019-02-16T23:45:04.216Z,17.27
2019-02-16T23:47:31.953Z,17.43
2019-02-16T23:50:00.467Z,14.53
2019-02-16T23:52:28.709Z,14.50
2019-02-16T23:54:56.984Z,13.67
2019-02-16T23:57:25.055Z,14.20
2019-02-16T23:59:53.333Z,13.37
